Time;durP1;ratioP1;P1;durP2;ratioP2;P2;SDS_P1;SDS_P2;PMS_P1;PMS_P2;Temp;Humidity;BMP_temperature;BMP_pressure;BME280_temperature;BME280_humidity;BME280_pressure;Samples;Min_cycle;Max_cycle;Signal;HPM_P1;HPM_P2
2022/04/04 00:00:42;;;;;;;8.20;6.50;;;5.80;99.90;;;;;;5049500;28;20472;-69
2022/04/04 00:03:10;;;;;;;11.03;6.17;;;5.70;99.90;;;;;;5049401;28;20474;-69
2022/04/04 00:05:37;;;;;;;8.60;6.13;;;5.70;99.90;;;;;;5049350;28;20499;-71
2022/04/04 00:08:05;;;;;;;8.60;6.13;;;5.70;99.90;;;;;;5049384;28;20457;-70
2022/04/04 00:10:32;;;;;;;8.20;5.73;;;5.70;99.90;;;;;;5048710;28;20458;-69
2022/04/04 00:12:59;;;;;;;7.70;5.67;;;5.80;99.90;;;;;;5049353;28;20493;-69
2022/04/04 00:15:28;;;;;;;7.70;6.50;;;5.90;99.90;;;;;;5049242;28;20485;-70
2022/04/04 00:17:55;;;;;;;9.83;5.47;;;5.80;99.90;;;;;;5049044;28;20883;-69
2022/04/04 00:20:23;;;;;;;6.70;5.13;;;5.80;99.90;;;;;;5049372;28;20538;-69
2022/04/04 00:22:50;;;;;;;10.53;6.03;;;5.90;99.90;;;;;;5049198;28;20506;-69
2022/04/04 00:25:17;;;;;;;7.57;5.90;;;5.80;99.90;;;;;;5049429;28;20518;-69
2022/04/04 00:27:45;;;;;;;7.53;6.00;;;5.80;99.90;;;;;;5049411;28;20820;-68
2022/04/04 00:30:12;;;;;;;13.37;6.43;;;5.80;99.90;;;;;;5049153;28;20463;-70
2022/04/04 00:32:41;;;;;;;7.33;5.30;;;5.90;99.90;;;;;;5047774;28;20497;-69
2022/04/04 00:35:09;;;;;;;8.67;6.10;;;6.10;99.90;;;;;;5049475;28;20454;-69
2022/04/04 00:37:37;;;;;;;7.50;5.20;;;5.60;99.90;;;;;;5049287;28;20457;-69
2022/04/04 00:40:05;;;;;;;6.97;5.37;;;5.50;99.90;;;;;;5049177;28;20986;-69
2022/04/04 00:42:32;;;;;;;7.70;5.20;;;5.50;99.90;;;;;;5049274;28;20470;-70
2022/04/04 00:45:00;;;;;;;7.63;5.80;;;5.30;99.90;;;;;;5049223;28;20803;-69
2022/04/04 00:47:27;;;;;;;8.40;5.57;;;5.30;99.90;;;;;;5049081;28;20469;-70
2022/04/04 00:49:56;;;;;;;9.13;5.00;;;5.30;99.90;;;;;;5047434;28;20482;-70
2022/04/04 00:52:23;;;;;;;8.23;5.30;;;5.30;99.90;;;;;;5048894;28;20478;-72
2022/04/04 00:54:50;;;;;;;8.10;5.10;;;5.40;99.90;;;;;;5048944;28;20458;-70
2022/04/04 00:57:18;;;;;;;6.70;4.97;;;5.60;99.90;;;;;;5048754;28;20986;-70
2022/04/04 00:59:48;;;;;;;8.90;6.03;;;5.50;99.90;;;;;;5048923;28;20461;-69
2022/04/04 01:02:15;;;;;;;9.63;5.60;;;5.50;99.90;;;;;;5049182;28;20469;-70
2022/04/04 01:04:42;;;;;;;7.30;5.90;;;5.50;99.90;;;;;;5048579;28;20821;-69
2022/04/04 01:07:11;;;;;;;7.30;5.30;;;5.60;99.90;;;;;;5048607;28;20541;-70
2022/04/04 01:09:38;;;;;;;8.57;5.60;;;5.70;99.90;;;;;;5048777;28;20549;-70
2022/04/04 01:12:07;;;;;;;6.80;5.17;;;5.70;99.90;;;;;;5049196;28;20480;-69
2022/04/04 01:14:35;;;;;;;7.47;5.40;;;5.80;99.90;;;;;;5048938;28;20832;-70
2022/04/04 01:17:02;;;;;;;8.10;5.80;;;5.90;99.90;;;;;;5049057;28;21117;-69
2022/04/04 01:19:29;;;;;;;7.57;5.60;;;6.00;99.90;;;;;;5048706;28;20507;-69
2022/04/04 01:21:56;;;;;;;8.77;5.67;;;6.00;99.90;;;;;;5050879;28;20449;-69
2022/04/04 01:24:25;;;;;;;8.00;5.13;;;6.10;99.90;;;;;;5052253;28;20485;-69
2022/04/04 01:26:54;;;;;;;6.97;5.30;;;6.00;99.90;;;;;;5052377;28;20446;-69
2022/04/04 01:29:23;;;;;;;8.10;5.63;;;6.00;99.90;;;;;;5052262;28;20454;-70
2022/04/04 01:31:51;;;;;;;9.20;5.77;;;6.00;99.90;;;;;;5052042;28;20450;-68
2022/04/04 01:34:19;;;;;;;6.80;4.60;;;6.00;99.90;;;;;;5052016;28;20473;-69
2022/04/04 01:36:46;;;;;;;7.37;4.90;;;5.90;99.90;;;;;;5052133;28;20481;-69
2022/04/04 01:39:13;;;;;;;6.53;4.67;;;5.60;99.90;;;;;;5052238;28;20454;-69
2022/04/04 01:41:42;;;;;;;7.10;4.80;;;5.70;99.90;;;;;;5052041;28;20919;-69
2022/04/04 01:44:10;;;;;;;6.03;4.20;;;5.60;99.90;;;;;;5052004;28;20469;-69
2022/04/04 01:46:38;;;;;;;8.57;5.90;;;5.70;99.90;;;;;;5051566;28;20454;-70
2022/04/04 01:49:06;;;;;;;7.70;5.30;;;5.80;99.90;;;;;;5051311;28;20489;-71
2022/04/04 01:51:35;;;;;;;7.03;5.63;;;5.80;99.90;;;;;;5051675;28;20537;-69
2022/04/04 01:54:03;;;;;;;8.13;6.03;;;5.60;99.90;;;;;;5051752;28;20492;-68
2022/04/04 01:56:30;;;;;;;8.23;5.33;;;5.70;99.90;;;;;;5051553;28;20487;-68
2022/04/04 01:58:59;;;;;;;8.77;5.90;;;5.90;99.90;;;;;;5051443;28;20806;-69
2022/04/04 02:01:28;;;;;;;7.80;5.00;;;5.80;99.90;;;;;;5051028;28;20461;-69
2022/04/04 02:03:57;;;;;;;7.07;5.10;;;5.80;99.90;;;;;;5051299;28;20474;-69
2022/04/04 02:06:24;;;;;;;6.70;5.03;;;5.90;99.90;;;;;;5051640;28;20449;-68
2022/04/04 02:08:52;;;;;;;8.10;4.87;;;6.10;99.90;;;;;;5051464;28;20458;-69
2022/04/04 02:11:21;;;;;;;6.57;4.77;;;6.10;99.90;;;;;;5051609;28;20873;-70
2022/04/04 02:13:48;;;;;;;7.47;5.33;;;6.10;99.90;;;;;;5051295;28;20473;-69
2022/04/04 02:16:17;;;;;;;9.63;5.67;;;6.10;99.90;;;;;;5051198;28;20547;-68
2022/04/04 02:18:44;;;;;;;7.00;4.87;;;6.00;99.90;;;;;;5051200;28;20450;-69
2022/04/04 02:21:12;;;;;;;7.13;4.43;;;6.00;99.90;;;;;;5051105;28;20465;-69
2022/04/04 02:23:39;;;;;;;7.20;5.27;;;6.10;99.90;;;;;;5051144;28;20506;-70
2022/04/04 02:26:06;;;;;;;7.33;5.73;;;6.20;99.90;;;;;;5051000;28;20472;-70
2022/04/04 02:28:33;;;;;;;6.70;5.30;;;6.10;99.90;;;;;;5050693;28;20584;-69
2022/04/04 02:31:01;;;;;;;6.90;5.13;;;6.20;99.90;;;;;;5050949;28;20455;-69
2022/04/04 02:33:30;;;;;;;7.43;5.27;;;6.20;99.90;;;;;;5050667;28;20473;-70
2022/04/04 02:35:57;;;;;;;8.50;6.40;;;6.30;99.90;;;;;;5050425;28;20449;-69
2022/04/04 02:38:26;;;;;;;8.10;5.40;;;6.30;99.90;;;;;;5051054;28;20458;-70
2022/04/04 02:40:54;;;;;;;8.20;5.70;;;6.50;99.90;;;;;;5050603;28;20827;-69
2022/04/04 02:43:22;;;;;;;7.20;4.37;;;6.20;99.90;;;;;;5050700;28;20565;-70
2022/04/04 02:45:49;;;;;;;7.90;5.50;;;6.20;99.90;;;;;;5050876;28;20925;-70
2022/04/04 02:48:16;;;;;;;6.50;4.50;;;6.30;99.90;;;;;;5050387;28;20489;-69
2022/04/04 02:50:46;;;;;;;8.80;5.03;;;6.30;99.90;;;;;;5050736;28;20449;-69
2022/04/04 02:53:14;;;;;;;6.80;4.73;;;6.30;99.90;;;;;;5050163;28;20977;-69
2022/04/04 02:58:26;;;;;;;9.67;5.77;;;6.40;99.90;;;;;;5050330;28;20451;-69
2022/04/04 03:00:53;;;;;;;9.43;5.40;;;6.40;99.90;;;;;;5050667;28;20453;-70
2022/04/04 03:03:20;;;;;;;7.57;5.70;;;6.40;99.90;;;;;;5050516;28;20466;-70
2022/04/04 03:05:48;;;;;;;7.20;5.43;;;6.40;99.90;;;;;;5050237;28;20517;-68
2022/04/04 03:08:15;;;;;;;8.80;6.13;;;6.40;99.90;;;;;;5050291;28;20446;-69
2022/04/04 03:10:43;;;;;;;8.63;6.30;;;6.30;99.90;;;;;;5050104;28;20806;-69
2022/04/04 03:13:10;;;;;;;8.97;7.10;;;6.10;99.90;;;;;;5050394;28;20485;-70
2022/04/04 03:15:37;;;;;;;8.57;6.70;;;5.90;99.90;;;;;;5050066;28;20449;-69
2022/04/04 03:18:06;;;;;;;9.83;6.40;;;6.00;99.90;;;;;;5050233;28;20477;-69
2022/04/04 03:20:33;;;;;;;7.60;6.80;;;6.10;99.90;;;;;;5049860;28;20543;-69
2022/04/04 03:23:02;;;;;;;10.30;6.50;;;6.10;99.90;;;;;;5049803;28;20961;-70
2022/04/04 03:25:30;;;;;;;9.37;6.20;;;6.00;99.90;;;;;;5048807;28;20461;-69
2022/04/04 03:27:57;;;;;;;8.37;6.30;;;5.90;99.90;;;;;;5049987;28;20454;-69
2022/04/04 03:30:27;;;;;;;8.60;6.73;;;5.90;99.90;;;;;;5049966;28;20453;-70
2022/04/04 03:32:57;;;;;;;10.77;7.00;;;5.90;99.90;;;;;;5049517;28;20461;-69
2022/04/04 03:35:26;;;;;;;8.50;6.53;;;5.90;99.90;;;;;;5049712;28;20923;-69
2022/04/04 03:37:55;;;;;;;8.93;7.40;;;5.90;99.90;;;;;;5049954;28;20493;-69
2022/04/04 03:40:24;;;;;;;8.80;6.03;;;5.80;99.90;;;;;;5049868;28;20985;-70
2022/04/04 03:42:55;;;;;;;7.87;6.17;;;5.60;99.90;;;;;;5049791;28;20556;-70
2022/04/04 03:45:24;;;;;;;8.90;6.93;;;5.30;99.90;;;;;;5049161;28;20527;-69
2022/04/04 03:47:51;;;;;;;11.07;7.77;;;5.00;99.90;;;;;;5049486;28;20465;-69
2022/04/04 03:50:19;;;;;;;8.23;6.50;;;5.10;99.90;;;;;;5049739;28;20454;-68
2022/04/04 03:52:48;;;;;;;7.73;6.20;;;5.10;99.90;;;;;;5049907;28;20491;-70
2022/04/04 03:55:17;;;;;;;9.73;7.50;;;5.00;99.90;;;;;;5049942;28;20485;-69
2022/04/04 03:57:45;;;;;;;10.50;8.00;;;5.00;99.90;;;;;;5049682;28;20884;-69
2022/04/04 04:00:14;;;;;;;8.73;7.30;;;5.10;99.90;;;;;;5049456;28;20965;-68
2022/04/04 04:02:41;;;;;;;9.47;7.57;;;5.00;99.90;;;;;;5049243;28;20565;-71
2022/04/04 04:05:09;;;;;;;11.43;7.90;;;5.00;99.90;;;;;;5049417;28;20454;-69
2022/04/04 04:07:36;;;;;;;10.20;7.40;;;5.10;99.90;;;;;;5049361;28;20453;-69
2022/04/04 04:10:04;;;;;;;13.20;8.30;;;5.10;99.90;;;;;;5049393;28;20521;-70
2022/04/04 04:12:31;;;;;;;9.67;7.90;;;5.20;99.90;;;;;;5049263;28;20446;-70
2022/04/04 04:15:01;;;;;;;10.50;8.37;;;5.40;99.90;;;;;;5049023;28;20982;-70
2022/04/04 04:17:28;;;;;;;11.43;7.77;;;5.40;99.90;;;;;;5049296;28;20489;-69
2022/04/04 04:22:39;;;;;;;9.60;7.60;;;5.50;99.90;;;;;;5048808;28;20932;-68
2022/04/04 04:25:08;;;;;;;13.23;8.40;;;5.60;99.90;;;;;;5049441;28;20454;-70
2022/04/04 04:27:36;;;;;;;10.80;8.40;;;5.70;99.90;;;;;;5049305;28;20860;-68
2022/04/04 04:30:06;;;;;;;11.40;7.70;;;5.60;99.90;;;;;;5049285;28;20457;-67
2022/04/04 04:32:33;;;;;;;9.80;8.33;;;5.80;99.90;;;;;;5049284;28;20457;-68
2022/04/04 04:35:00;;;;;;;13.57;9.20;;;6.00;99.90;;;;;;5049525;28;20482;-67
2022/04/04 04:37:27;;;;;;;12.23;8.40;;;6.10;99.90;;;;;;5049049;28;20489;-68
2022/04/04 04:39:54;;;;;;;9.20;7.40;;;6.20;99.90;;;;;;5049192;28;20457;-75
2022/04/04 04:42:22;;;;;;;10.80;8.30;;;6.50;99.90;;;;;;5049143;28;20450;-74
2022/04/04 04:44:49;;;;;;;11.80;8.07;;;6.20;99.90;;;;;;5049451;28;20482;-79
2022/04/04 04:47:18;;;;;;;9.67;8.40;;;6.20;99.90;;;;;;5049549;28;20469;-74
2022/04/04 04:49:48;;;;;;;9.80;8.27;;;6.00;99.90;;;;;;5048425;28;20556;-77
2022/04/04 04:52:15;;;;;;;9.97;7.47;;;5.90;99.90;;;;;;5049236;28;20537;-77
2022/04/04 04:54:44;;;;;;;9.10;8.20;;;5.70;99.90;;;;;;5049212;28;20488;-73
2022/04/04 04:57:11;;;;;;;15.40;8.40;;;5.70;99.90;;;;;;5052570;28;21040;-77
2022/04/04 04:59:38;;;;;;;10.23;8.33;;;5.70;99.90;;;;;;5053224;28;20546;-74
2022/04/04 05:02:06;;;;;;;12.23;8.40;;;5.70;99.90;;;;;;5052977;28;20456;-75
2022/04/04 05:04:34;;;;;;;10.00;7.97;;;5.70;99.90;;;;;;5052937;28;20469;-73
2022/04/04 05:07:01;;;;;;;11.90;8.40;;;5.60;99.90;;;;;;5052717;28;20454;-73
2022/04/04 05:09:29;;;;;;;10.27;7.93;;;5.70;99.90;;;;;;5052577;28;20819;-75
2022/04/04 05:11:56;;;;;;;11.30;9.00;;;5.70;99.90;;;;;;5052694;28;20568;-73
2022/04/04 05:14:23;;;;;;;10.60;8.60;;;5.80;99.90;;;;;;5052655;28;20470;-73
2022/04/04 05:16:50;;;;;;;11.30;9.00;;;5.90;99.90;;;;;;5052703;28;20471;-74
2022/04/04 05:19:18;;;;;;;10.03;8.80;;;6.00;99.90;;;;;;5052165;28;20461;-74
2022/04/04 05:21:47;;;;;;;12.43;9.60;;;6.10;99.90;;;;;;5049755;28;20818;-73
2022/04/04 05:24:14;;;;;;;11.07;8.40;;;6.00;99.90;;;;;;5051675;28;20504;-69
2022/04/04 05:26:41;;;;;;;11.97;9.10;;;6.10;99.90;;;;;;5052194;28;20450;-70
2022/04/04 05:29:08;;;;;;;9.60;8.37;;;6.10;99.90;;;;;;5051414;28;20484;-71
2022/04/04 05:31:36;;;;;;;10.00;8.73;;;6.20;99.90;;;;;;5052215;28;20465;-79
2022/04/04 05:34:05;;;;;;;9.57;8.30;;;6.30;99.90;;;;;;5051987;28;20466;-80
2022/04/04 05:36:33;;;;;;;11.90;8.33;;;6.40;99.90;;;;;;5051644;28;20494;-76
2022/04/04 05:39:02;;;;;;;11.50;9.23;;;6.40;99.90;;;;;;5051999;28;20577;-79
2022/04/04 05:41:29;;;;;;;10.73;9.23;;;6.50;99.90;;;;;;5051875;28;20952;-77
2022/04/04 05:43:57;;;;;;;10.40;8.97;;;6.50;99.90;;;;;;5051780;28;20829;-73
2022/04/04 05:46:25;;;;;;;10.93;8.67;;;6.50;99.90;;;;;;5052176;28;20449;-74
2022/04/04 05:48:52;;;;;;;11.03;9.13;;;6.40;99.90;;;;;;5051996;28;21236;-73
2022/04/04 05:51:19;;;;;;;10.00;8.93;;;6.40;99.90;;;;;;5051780;28;20878;-75
2022/04/04 05:53:46;;;;;;;9.67;8.50;;;6.40;99.90;;;;;;5053059;28;20482;-78
2022/04/04 05:56:15;;;;;;;13.20;9.57;;;6.40;99.90;;;;;;5057011;28;20454;-79
2022/04/04 05:58:42;;;;;;;10.53;8.80;;;6.40;99.90;;;;;;5054267;28;20508;-71
2022/04/04 06:01:09;;;;;;;12.00;8.83;;;6.50;99.90;;;;;;5051490;28;20462;-78
2022/04/04 06:03:37;;;;;;;12.57;8.47;;;6.70;99.90;;;;;;5052421;28;20474;-81
2022/04/04 06:06:04;;;;;;;10.03;7.90;;;6.50;99.90;;;;;;5051529;28;20453;-81
2022/04/04 06:08:31;;;;;;;10.30;7.17;;;6.60;99.90;;;;;;5051398;28;20881;-76
2022/04/04 06:10:58;;;;;;;11.97;9.17;;;6.60;99.90;;;;;;5051140;28;21054;-70
2022/04/04 06:13:27;;;;;;;10.03;8.57;;;6.70;99.90;;;;;;5050745;28;20931;-78
2022/04/04 06:15:54;;;;;;;9.23;7.93;;;6.60;99.90;;;;;;5051300;28;20457;-76
2022/04/04 06:18:21;;;;;;;9.63;7.43;;;6.80;99.90;;;;;;5051348;28;20628;-73
2022/04/04 06:20:49;;;;;;;11.80;9.30;;;6.90;99.90;;;;;;5052140;28;20457;-75
2022/04/04 06:23:16;;;;;;;14.50;9.10;;;7.00;99.90;;;;;;5050854;28;20481;-74
2022/04/04 06:25:43;;;;;;;11.93;9.00;;;7.10;99.90;;;;;;5051092;28;20462;-73
2022/04/04 06:28:12;;;;;;;12.43;9.70;;;7.10;99.90;;;;;;5050738;28;20481;-69
2022/04/04 06:30:40;;;;;;;15.83;9.07;;;7.10;99.90;;;;;;5050968;28;20587;-70
2022/04/04 06:33:08;;;;;;;10.87;9.33;;;7.30;99.90;;;;;;5050746;28;20965;-68
2022/04/04 06:35:35;;;;;;;11.57;8.60;;;7.20;99.90;;;;;;5050771;28;20456;-69
2022/04/04 06:38:03;;;;;;;13.37;9.47;;;7.20;99.90;;;;;;5052766;28;20494;-79
2022/04/04 06:40:30;;;;;;;10.97;8.70;;;7.10;99.90;;;;;;5053414;28;20446;-81
2022/04/04 06:42:58;;;;;;;13.40;10.63;;;7.10;99.90;;;;;;5052215;28;20481;-73
2022/04/04 06:45:26;;;;;;;9.40;7.23;;;7.30;99.90;;;;;;5050368;28;20808;-75
2022/04/04 06:47:54;;;;;;;11.43;9.67;;;7.30;99.90;;;;;;5050159;28;20772;-78
2022/04/04 06:50:23;;;;;;;12.87;9.40;;;7.30;99.90;;;;;;5052719;28;20450;-80
2022/04/04 06:52:52;;;;;;;11.10;9.37;;;7.50;99.90;;;;;;5052474;28;20454;-72
2022/04/04 06:55:20;;;;;;;14.17;8.90;;;7.60;99.90;;;;;;5050439;28;20470;-70
2022/04/04 06:57:47;;;;;;;20.43;13.57;;;7.80;99.90;;;;;;5050014;28;20899;-71
2022/04/04 07:00:16;;;;;;;16.77;11.20;;;7.80;99.90;;;;;;5049839;28;20500;-70
2022/04/04 07:02:44;;;;;;;19.50;12.43;;;7.90;99.90;;;;;;5050083;28;20788;-71
2022/04/04 07:05:12;;;;;;;12.93;10.67;;;8.00;99.90;;;;;;5050165;28;20509;-68
2022/04/04 07:07:40;;;;;;;12.30;10.30;;;8.20;99.90;;;;;;5049678;28;20450;-70
2022/04/04 07:10:07;;;;;;;11.37;9.90;;;8.40;99.90;;;;;;5049823;28;20545;-72
2022/04/04 07:12:39;;;;;;;15.43;10.57;;;8.60;99.90;;;;;;5049758;28;20457;-71
2022/04/04 07:15:10;;;;;;;13.30;10.00;;;8.80;99.90;;;;;;5050137;28;20470;-80
2022/04/04 07:17:38;;;;;;;15.70;10.20;;;8.80;99.90;;;;;;5050174;28;20489;-72
2022/04/04 07:20:06;;;;;;;11.90;10.67;;;8.80;99.90;;;;;;5048892;28;20492;-71
2022/04/04 07:22:37;;;;;;;11.67;10.47;;;8.90;99.90;;;;;;5049813;28;20516;-69
2022/04/04 07:25:07;;;;;;;11.60;9.70;;;8.80;99.90;;;;;;5050188;28;20835;-70
2022/04/04 07:27:35;;;;;;;12.03;10.23;;;9.10;99.90;;;;;;5050053;28;20533;-70
2022/04/04 07:30:02;;;;;;;12.77;9.90;;;9.30;99.90;;;;;;5049933;28;20492;-69
2022/04/04 07:32:29;;;;;;;11.90;9.87;;;9.30;99.90;;;;;;5049422;28;20454;-72
2022/04/04 07:34:56;;;;;;;11.40;8.80;;;9.50;99.40;;;;;;5049695;28;20844;-73
2022/04/04 07:37:24;;;;;;;11.60;9.37;;;9.60;97.80;;;;;;5049585;28;20454;-72
2022/04/04 07:39:54;;;;;;;12.13;9.80;;;9.70;97.00;;;;;;5049666;28;20553;-74
2022/04/04 07:42:21;;;;;;;10.70;9.20;;;9.80;97.20;;;;;;5049838;28;20461;-70
2022/04/04 07:44:48;;;;;;;13.27;9.03;;;10.10;95.30;;;;;;5049688;28;20477;-74
2022/04/04 07:47:15;;;;;;;14.40;10.53;;;10.20;94.30;;;;;;5049635;28;20461;-74
2022/04/04 07:49:42;;;;;;;12.73;9.90;;;10.20;95.30;;;;;;5049429;28;20485;-74
2022/04/04 07:52:09;;;;;;;9.67;8.30;;;10.40;95.30;;;;;;5049411;28;20449;-74
2022/04/04 07:54:37;;;;;;;10.87;9.10;;;10.60;93.40;;;;;;5049556;28;20465;-73
2022/04/04 07:57:05;;;;;;;12.20;8.60;;;10.60;92.10;;;;;;5049590;28;20504;-73
2022/04/04 07:59:32;;;;;;;10.97;9.63;;;10.40;90.80;;;;;;5049554;28;20493;-72
2022/04/04 08:01:59;;;;;;;13.50;9.30;;;10.40;91.30;;;;;;5049080;28;20450;-68
2022/04/04 08:04:26;;;;;;;9.60;8.40;;;10.50;88.90;;;;;;5049254;28;20488;-69
2022/04/04 08:06:53;;;;;;;11.10;8.97;;;10.60;90.60;;;;;;5049055;28;20445;-67
2022/04/04 08:09:21;;;;;;;11.77;9.00;;;10.60;91.10;;;;;;5049454;28;20453;-70
2022/04/04 08:11:48;;;;;;;12.70;10.03;;;10.80;90.40;;;;;;5049393;28;20473;-70
2022/04/04 08:14:16;;;;;;;10.90;9.00;;;10.80;89.60;;;;;;5049154;28;20453;-67
2022/04/04 08:16:44;;;;;;;9.60;8.03;;;10.90;87.10;;;;;;5049004;28;20470;-68
2022/04/04 08:19:13;;;;;;;10.10;8.80;;;11.10;87.10;;;;;;5049139;28;21044;-68
2022/04/04 08:21:41;;;;;;;9.90;8.50;;;11.10;85.90;;;;;;5048715;28;20458;-70
2022/04/04 08:24:09;;;;;;;9.70;8.50;;;11.30;85.50;;;;;;5048858;28;20450;-70
2022/04/04 08:26:36;;;;;;;11.20;10.00;;;11.50;83.40;;;;;;5049357;28;20819;-68
2022/04/04 08:29:03;;;;;;;15.53;9.07;;;11.60;84.00;;;;;;5049020;28;20450;-70
2022/04/04 08:31:32;;;;;;;13.13;8.80;;;11.70;81.90;;;;;;5052670;28;20461;-67
2022/04/04 08:33:59;;;;;;;28.53;20.23;;;11.70;80.90;;;;;;5053084;28;20659;-68
2022/04/04 08:36:26;;;;;;;11.80;9.20;;;11.90;80.50;;;;;;5053262;28;20454;-75
2022/04/04 08:38:53;;;;;;;12.50;10.10;;;12.00;83.60;;;;;;5053134;28;20936;-70
2022/04/04 08:41:22;;;;;;;18.80;9.80;;;11.90;81.20;;;;;;5052867;28;20458;-69
2022/04/04 08:43:50;;;;;;;10.63;8.13;;;12.00;83.60;;;;;;5052964;28;20454;-73
2022/04/04 08:46:17;;;;;;;10.43;8.03;;;12.20;79.10;;;;;;5053090;28;20548;-69
2022/04/04 08:48:46;;;;;;;14.60;9.60;;;12.10;78.50;;;;;;5052239;28;20482;-73
2022/04/04 08:51:14;;;;;;;12.30;10.47;;;12.10;79.40;;;;;;5053007;28;20898;-74
2022/04/04 08:53:41;;;;;;;11.07;8.80;;;12.30;78.30;;;;;;5052916;28;20457;-67
2022/04/04 08:56:09;;;;;;;11.83;9.23;;;12.50;78.60;;;;;;5052553;28;20481;-69
2022/04/04 08:58:37;;;;;;;11.40;9.93;;;12.60;76.10;;;;;;5052666;28;20511;-71
2022/04/04 09:01:04;;;;;;;11.00;9.37;;;12.60;74.50;;;;;;5052779;28;20461;-73
2022/04/04 09:03:31;;;;;;;14.23;11.03;;;12.40;74.40;;;;;;5052646;28;20457;-69
2022/04/04 09:06:01;;;;;;;13.90;10.37;;;12.30;73.60;;;;;;5052487;28;20465;-71
2022/04/04 09:08:29;;;;;;;11.27;9.53;;;12.40;76.50;;;;;;5052083;28;20461;-71
2022/04/04 09:11:00;;;;;;;12.47;10.03;;;12.50;79.90;;;;;;5052349;28;20492;-69
2022/04/04 09:13:29;;;;;;;10.30;8.07;;;12.60;75.70;;;;;;5052320;28;20550;-68
2022/04/04 09:15:59;;;;;;;10.97;9.67;;;12.60;75.80;;;;;;5052393;28;20821;-71
2022/04/04 09:18:49;;;;;;;10.70;8.67;;;12.70;75.20;;;;;;5052416;28;20481;-70
2022/04/04 09:21:35;;;;;;;11.13;8.67;;;12.90;72.90;;;;;;5049366;28;20462;-75
2022/04/04 09:24:09;;;;;;;11.23;8.40;;;12.90;73.50;;;;;;5052159;28;20485;-72
2022/04/04 09:26:38;;;;;;;11.70;8.50;;;12.90;73.70;;;;;;5052204;28;20473;-73
2022/04/04 09:29:09;;;;;;;10.80;8.80;;;13.10;73.80;;;;;;5052116;28;20478;-73
2022/04/04 09:31:37;;;;;;;12.77;9.03;;;13.20;71.30;;;;;;5051755;28;20449;-70
2022/04/04 09:34:06;;;;;;;11.40;9.47;;;13.10;71.50;;;;;;5051650;28;20536;-74
2022/04/04 09:36:45;;;;;;;10.40;9.10;;;13.10;74.30;;;;;;5052065;28;20574;-71
2022/04/04 09:39:15;;;;;;;13.50;9.73;;;13.30;72.70;;;;;;5052042;28;20516;-73
2022/04/04 09:41:42;;;;;;;13.30;9.17;;;13.50;72.40;;;;;;5050870;28;20469;-75
2022/04/04 09:44:11;;;;;;;10.93;8.90;;;13.70;71.80;;;;;;5051762;28;20863;-72
2022/04/04 09:46:40;;;;;;;9.87;8.27;;;14.00;71.30;;;;;;5051498;28;20961;-70
2022/04/04 09:49:10;;;;;;;12.73;9.10;;;14.20;68.10;;;;;;5051600;28;20486;-76
2022/04/04 09:51:42;;;;;;;11.10;9.70;;;14.30;69.20;;;;;;5051582;28;20465;-73
2022/04/04 09:54:11;;;;;;;12.63;9.70;;;14.50;68.50;;;;;;5051625;28;20461;-72
2022/04/04 09:56:38;;;;;;;11.27;9.37;;;14.30;66.50;;;;;;5051488;28;21032;-73
2022/04/04 09:59:06;;;;;;;12.23;10.03;;;13.90;67.00;;;;;;5051168;28;20486;-73
2022/04/04 10:01:34;;;;;;;12.83;10.20;;;13.90;70.00;;;;;;5051180;28;20454;-74
2022/04/04 10:04:03;;;;;;;9.97;8.53;;;14.10;68.80;;;;;;5051526;28;20450;-75
2022/04/04 10:06:31;;;;;;;16.30;9.13;;;14.20;68.60;;;;;;5051326;28;20505;-74
2022/04/04 10:09:01;;;;;;;9.50;8.30;;;14.30;66.70;;;;;;5051424;28;20458;-75
2022/04/04 10:11:30;;;;;;;13.97;8.90;;;14.20;66.20;;;;;;5050766;28;20461;-74
2022/04/04 10:13:57;;;;;;;10.33;8.70;;;14.10;68.00;;;;;;5051048;28;20548;-71
2022/04/04 10:16:25;;;;;;;11.70;9.43;;;14.30;66.40;;;;;;5051177;28;20552;-74
2022/04/04 10:18:55;;;;;;;14.93;11.20;;;14.50;66.10;;;;;;5051359;28;20856;-74
2022/04/04 10:21:22;;;;;;;12.20;8.93;;;14.70;66.70;;;;;;5050643;28;20485;-72
2022/04/04 10:23:52;;;;;;;12.90;10.27;;;14.80;66.70;;;;;;5051143;28;20483;-75
2022/04/04 10:26:26;;;;;;;10.07;8.50;;;14.80;67.20;;;;;;5050866;28;20465;-73
2022/04/04 10:29:12;;;;;;;13.00;10.17;;;14.70;64.80;;;;;;5050986;28;20941;-73
2022/04/04 10:31:48;;;;;;;11.30;8.60;;;14.70;63.70;;;;;;5050488;28;20464;-74
2022/04/04 10:34:18;;;;;;;9.60;8.20;;;14.50;64.30;;;;;;5050758;28;20461;-73
2022/04/04 10:37:00;;;;;;;11.07;8.63;;;14.60;67.00;;;;;;5050927;28;20470;-75
2022/04/04 10:39:47;;;;;;;10.13;8.23;;;14.80;67.20;;;;;;5050830;28;20489;-72
2022/04/04 10:42:30;;;;;;;12.33;8.63;;;14.60;63.90;;;;;;5050971;28;20449;-73
2022/04/04 10:45:00;;;;;;;10.80;8.20;;;14.60;65.80;;;;;;5050338;28;20527;-74
2022/04/04 10:47:30;;;;;;;11.03;7.97;;;14.80;65.20;;;;;;5050187;28;20827;-75
2022/04/04 10:49:58;;;;;;;10.67;8.80;;;14.90;64.60;;;;;;5050778;28;20693;-74
2022/04/04 10:52:43;;;;;;;11.40;9.50;;;14.90;65.10;;;;;;5050191;28;20465;-72
2022/04/04 10:55:54;;;;;;;9.43;7.90;;;14.90;64.70;;;;;;5050392;28;20457;-75
2022/04/04 10:58:24;;;;;;;10.00;8.80;;;14.80;63.40;;;;;;5050374;28;20454;-73
2022/04/04 11:01:04;;;;;;;10.50;9.10;;;14.50;63.90;;;;;;5050353;28;20485;-72
2022/04/04 11:03:32;;;;;;;18.87;15.57;;;14.50;66.40;;;;;;5050101;28;20973;-70
2022/04/04 11:09:03;;;;;;;15.37;9.57;;;15.00;65.20;;;;;;5050514;28;20533;-72
2022/04/04 11:11:48;;;;;;;13.03;8.33;;;15.10;65.60;;;;;;5050108;28;20450;-70
2022/04/04 11:14:19;;;;;;;10.03;7.73;;;15.30;64.90;;;;;;5049603;28;20441;-73
2022/04/04 11:17:43;;;;;;;10.50;8.33;;;15.50;64.20;;;;;;5049925;28;20470;-71
2022/04/04 11:20:33;;;;;;;12.90;7.50;;;15.30;64.80;;;;;;5048562;28;20643;-70
2022/04/04 11:23:08;;;;;;;10.43;8.53;;;15.50;62.90;;;;;;5049267;28;21028;-74
2022/04/04 11:25:37;;;;;;;10.37;8.10;;;15.70;62.70;;;;;;5050067;28;20960;-72
2022/04/04 11:28:05;;;;;;;11.20;8.50;;;16.00;63.60;;;;;;5049437;28;20470;-76
2022/04/04 11:30:36;;;;;;;15.03;11.87;;;16.20;62.70;;;;;;5049536;28;20794;-75
2022/04/04 11:33:07;;;;;;;22.67;18.73;;;16.40;60.80;;;;;;5049984;28;20577;-73
2022/04/04 11:35:34;;;;;;;12.00;8.80;;;16.50;60.60;;;;;;5049798;28;20766;-74
2022/04/04 11:38:05;;;;;;;11.23;8.00;;;16.50;59.80;;;;;;5049333;28;20904;-74
2022/04/04 11:40:35;;;;;;;12.63;9.40;;;16.50;60.10;;;;;;5049673;28;20509;-77
2022/04/04 11:43:05;;;;;;;12.40;9.60;;;16.40;61.40;;;;;;5049574;28;20508;-75
2022/04/04 11:45:37;;;;;;;9.70;7.60;;;16.20;59.60;;;;;;5049523;28;20450;-74
2022/04/04 11:48:07;;;;;;;11.07;8.03;;;16.00;59.70;;;;;;5049246;28;20584;-77
2022/04/04 11:50:37;;;;;;;11.80;9.83;;;16.10;60.10;;;;;;5049655;28;20454;-76
2022/04/04 11:53:06;;;;;;;14.10;7.30;;;16.30;59.40;;;;;;5049715;28;20964;-76
2022/04/04 11:55:35;;;;;;;11.87;7.87;;;16.40;58.90;;;;;;5049300;28;20469;-76
2022/04/04 11:58:09;;;;;;;11.83;8.67;;;16.40;59.00;;;;;;5049133;28;20478;-75
2022/04/04 12:00:39;;;;;;;13.50;8.43;;;16.30;59.10;;;;;;5048905;28;20489;-75
2022/04/04 12:03:10;;;;;;;10.27;8.60;;;16.40;59.30;;;;;;5049559;28;20450;-75
2022/04/04 12:05:37;;;;;;;9.20;7.90;;;16.40;59.10;;;;;;5049015;28;20545;-75
2022/04/04 12:08:06;;;;;;;11.30;8.47;;;16.40;57.90;;;;;;5049093;28;20481;-74
2022/04/04 12:10:35;;;;;;;14.50;8.07;;;16.50;58.10;;;;;;5049436;28;20540;-74
2022/04/04 12:13:05;;;;;;;10.57;8.60;;;16.20;58.70;;;;;;5049432;28;20531;-75
2022/04/04 12:15:34;;;;;;;10.30;8.40;;;15.90;58.20;;;;;;5049198;28;20973;-75
2022/04/04 12:18:04;;;;;;;10.50;8.70;;;15.70;59.00;;;;;;5049103;28;21085;-76
2022/04/04 12:20:39;;;;;;;16.80;14.20;;;15.90;60.50;;;;;;5048719;28;20505;-75
2022/04/04 12:25:54;;;;;;;10.40;6.90;;;16.20;59.00;;;;;;5049331;28;20480;-75
2022/04/04 12:28:25;;;;;;;9.83;7.40;;;16.40;58.50;;;;;;5048661;28;20454;-74
2022/04/04 12:30:53;;;;;;;9.90;8.30;;;16.40;57.80;;;;;;5049118;28;20450;-74
2022/04/04 12:33:30;;;;;;;11.80;7.87;;;16.50;58.40;;;;;;5049004;28;20449;-76
2022/04/04 12:35:57;;;;;;;8.90;7.33;;;16.40;59.20;;;;;;5049105;28;20488;-77
2022/04/04 12:38:26;;;;;;;9.90;7.30;;;16.50;58.70;;;;;;5049328;28;20464;-77
2022/04/04 12:41:05;;;;;;;9.60;7.00;;;16.60;58.50;;;;;;5049249;28;21001;-73
2022/04/04 12:43:33;;;;;;;9.57;8.17;;;16.60;57.30;;;;;;5049395;28;20461;-75
2022/04/04 12:46:00;;;;;;;8.63;7.00;;;16.50;57.00;;;;;;5048975;28;20457;-74
2022/04/04 12:48:37;;;;;;;10.70;7.60;;;16.60;56.70;;;;;;5048266;28;20520;-75
2022/04/04 12:51:04;;;;;;;9.43;8.00;;;16.70;57.20;;;;;;5049045;28;20449;-76
2022/04/04 12:53:47;;;;;;;10.23;7.20;;;16.70;58.00;;;;;;5049051;28;20468;-74
2022/04/04 12:56:14;;;;;;;32.23;23.60;;;16.70;57.20;;;;;;5048496;28;20896;-75
2022/04/04 12:58:41;;;;;;;8.37;7.10;;;16.70;57.90;;;;;;5048312;28;20803;-72
2022/04/04 13:01:14;;;;;;;10.90;8.17;;;16.50;57.80;;;;;;5048887;28;20492;-74
2022/04/04 13:03:49;;;;;;;13.10;9.93;;;16.30;58.20;;;;;;5049151;28;20909;-78
2022/04/04 13:06:17;;;;;;;9.37;7.30;;;16.20;58.20;;;;;;5048682;28;20469;-76